Flight Track Log - Related Links

Times and Time Zones

All times are in EDT time to prevent confusion due to time zone crossing. See the DAL975 flight status page for this flight to view local times or setup timezone preferences in your user account.

Time Position Orientation Groundspeed Altitude Reporting Facility
EDT Latitude Longitude Course Direction KTS MPH feet Rate Location/Type
Mon 07:21:56 PM 40.7333 -73.8333 270° West 203 234 3,400  Level New York TRACON
Mon 07:22:56 PM 40.7667 -73.7667 57° Northeast 266 306 6,300 3,400 Climbing New York TRACON
Mon 07:23:56 PM 40.8333 -73.7833 349° North 295 339 10,200 3,050 Climbing New York TRACON
Mon 07:24:56 PM 40.8833 -73.8833 304° West 320 368 12,400 2,350 Climbing New York TRACON
Mon 07:25:56 PM 40.8833 -74.0000 270° West 358 412 14,900 1,300 Climbing New York TRACON
Mon 07:26:56 PM 40.8667 -74.1333 261° West 371 427 15,000 200 Climbing New York TRACON
Mon 07:27:00 PM 40.7834 -74.6140 270° West  Level FlightAware Approximate
Mon 07:27:56 PM 40.8667 -74.2667 270° West 376 433 15,300  Level New York TRACON
Mon 07:28:56 PM 40.8500 -74.4000 261° West 370 426 17,000 634 Climbing New York TRACON
Mon 07:30:37 PM 40.8381 -74.6303 266° West 380 437 17,000 189 Level New York Center
Mon 07:31:35 PM 40.8294 -74.7694 265° West 380 437 17,500 1,322 Climbing New York Center
Mon 07:32:35 PM 40.8206 -74.9061 265° West 385 443 19,600 1,250 Climbing New York Center
Mon 07:33:35 PM 40.8092 -75.0453 264° West 385 443 20,000 151 Climbing New York Center
Mon 07:34:34 PM 40.7956 -75.1897 263° West 385 443 19,900  Descending New York Center
Mon 07:35:34 PM 40.7764 -75.3144 259° West 390 449 20,000  Climbing New York Center
Mon 07:36:36 PM 40.7372 -75.4625 251° West 390 449 19,900 148 Descending New York Center
Mon 07:37:36 PM 40.6881 -75.5933 244° Southwest 399 459 20,300 1,271 Climbing New York Center
Mon 07:38:34 PM 40.6414 -75.7186 244° Southwest 404 465 22,400 2,218 Climbing New York Center
Mon 07:39:35 PM 40.5897 -75.8542 243° Southwest 404 465 24,700 1,785 Climbing New York Center
Mon 07:40:35 PM 40.5386 -75.9733 241° Southwest 411 473 26,000 1,412 Climbing New York Center
Mon 07:41:34 PM 40.4886 -76.1142 245° Southwest 419 482 27,500 1,008 Climbing New York Center
Mon 07:42:34 PM 40.4364 -76.2547 244° Southwest 430 495 28,000 246 Climbing New York Center
Mon 07:43:36 PM 40.3772 -76.4053 243° Southwest 430 495 28,000  Level New York Center
Mon 07:44:36 PM 40.3386 -76.5519 251° West 430 495 28,000 -102 Level New York Center
Mon 07:45:34 PM 40.3022 -76.6986 252° West 423 487 27,800 -605 Descending New York Center
Mon 07:46:35 PM 40.2678 -76.8428 253° West 423 487 26,800 -900 Descending New York Center
Mon 07:47:34 PM 40.2297 -76.9753 249° West 409 471 26,000 -403 Descending New York Center
Mon 07:48:34 PM 40.1928 -77.1189 251° West 409 471 26,000  Level New York Center
Mon 07:49:35 PM 40.1561 -77.2594 251° West 414 476 26,000 -603 Level New York Center
Mon 07:52:03 PM 40.0700 -77.6042 252° West 407 468 23,900 -894 Descending Cleveland Center
Mon 07:53:03 PM 40.0336 -77.7386 251° West 407 468 22,900 -950 Descending Cleveland Center
Mon 07:54:03 PM 39.9972 -77.8703 250° West 400 460 22,000 -450 Descending Cleveland Center
Mon 07:55:03 PM 39.9711 -78.0042 256° West 389 448 22,000  Level Cleveland Center
Mon 07:56:03 PM 39.9764 -78.1447 273° West 384 442 22,000  Level Cleveland Center
Mon 07:57:03 PM 39.9794 -78.2908 272° West 397 457 22,000  Level Cleveland Center
Mon 07:58:03 PM 39.9825 -78.4453 272° West 412 474 22,000  Level Cleveland Center
Mon 07:59:03 PM 39.9872 -78.5969 272° West 418 481 22,000  Level Cleveland Center
Mon 08:00:03 PM 39.9897 -78.7458 271° West 418 481 22,000 -450 Level Cleveland Center
Mon 08:01:03 PM 39.9922 -78.8950 271° West 418 481 21,100 -1,450 Descending Cleveland Center
Mon 08:02:03 PM 40.0003 -79.0303 274° West 402 463 19,100 -1,800 Descending Cleveland Center
Mon 08:03:03 PM 40.0019 -79.1522 271° West 370 426 17,500 -1,750 Descending Cleveland Center
Mon 08:04:03 PM 40.0033 -79.2794 271° West 353 406 15,600 -1,900 Descending Cleveland Center
Mon 08:05:03 PM 40.0089 -79.4014 273° West 346 398 13,700 -1,900 Descending Cleveland Center
Mon 08:06:03 PM 40.0661 -79.5006 307° West 336 387 11,800 -1,800 Descending Cleveland Center
Mon 08:07:03 PM 40.1131 -79.6086 300° West 336 387 10,100 -900 Descending Cleveland Center
Mon 08:08:03 PM 40.1556 -79.7111 299° West 331 381 10,000 -50 Descending Cleveland Center
Mon 08:09:03 PM 40.2000 -79.8167 299° West 331 381 10,000  Level Cleveland Center
Mon 08:09:46 PM 40.2306 -79.8931 298° West 326 375 10,000  Level FAA TRACON SMA TRACON (SMA)
Mon 08:10:05 PM 40.2461 -79.9236 304° West 327 376 10,000  Level FAA TRACON SMA TRACON (SMA)
Mon 08:10:25 PM 40.2644 -79.9500 312° West 329 379 10,000  Level FAA TRACON SMA TRACON (SMA)
Mon 08:10:46 PM 40.2808 -79.9931 297° West 330 380 10,000  Level FAA TRACON SMA TRACON (SMA)
Mon 08:11:06 PM 40.2964 -80.0244 303° West 330 380 10,000  Level FAA TRACON SMA TRACON (SMA)
Mon 08:11:26 PM 40.3114 -80.0511 306° West 331 381 10,000  Level FAA TRACON SMA TRACON (SMA)
Mon 08:11:46 PM 40.3272 -80.0869 300° West 331 381 10,000  Level FAA TRACON SMA TRACON (SMA)
Mon 08:12:05 PM 40.3450 -80.1189 306° West 325 374 10,000 -450 Level FAA TRACON SMA TRACON (SMA)
Mon 08:12:26 PM 40.3586 -80.1458 304° West 278 320 9,700 -1,500 Descending FAA TRACON SMA TRACON (SMA)
Mon 08:12:45 PM 40.3700 -80.1711 301° West 265 305 9,000 -3,231 Descending FAA TRACON SMA TRACON (SMA)
Mon 08:13:05 PM 40.3875 -80.2039 305° West 268 308 7,600 -3,512 Descending FAA TRACON SMA TRACON (SMA)
Mon 08:13:26 PM 40.4017 -80.2292 306° West 279 321 6,600 -2,700 Descending FAA TRACON SMA TRACON (SMA)
Mon 08:13:45 PM 40.4161 -80.2542 307° West 275 316 5,800 -3,000 Descending FAA TRACON SMA TRACON (SMA)
Mon 08:14:06 PM 40.4217 -80.2903 281° West 260 299 4,600 -3,300 Descending FAA TRACON SMA TRACON (SMA)
Mon 08:14:25 PM 40.4189 -80.3192 263° West 263 303 3,600 -2,308 Descending FAA TRACON SMA TRACON (SMA)
Mon 08:14:45 PM 40.4206 -80.3497 274° West 279 321 3,100 -878 Descending FAA TRACON SMA TRACON (SMA)
Mon 08:15:06 PM 40.4314 -80.3839 293° West 251 289 3,000 -150 Descending FAA TRACON SMA TRACON (SMA)
Mon 08:15:25 PM 40.4489 -80.3983 328° Northwest 218 251 3,000  Level FAA TRACON SMA TRACON (SMA)
Mon 08:15:46 PM 40.4675 -80.3997 357° North 200 230 3,000 -300 Level FAA TRACON SMA TRACON (SMA)
Mon 08:16:05 PM 40.4828 -80.3892 28° Northeast 206 237 2,800 -462 Descending FAA TRACON SMA TRACON (SMA)
Mon 08:16:25 PM 40.4981 -80.3719 41° Northeast 184 212 2,700 -439 Descending FAA TRACON SMA TRACON (SMA)
Mon 08:16:46 PM 40.5042 -80.3556 64° Northeast 151 174 2,500 -750 Descending FAA TRACON SMA TRACON (SMA)
Mon 08:17:05 PM 40.5039 -80.3406 91° East 128 147 2,200 -750 Descending FAA TRACON SMA TRACON (SMA)
Mon 08:17:26 PM 40.5033 -80.3231 92° East 126 145 2,000 -750 Descending FAA TRACON SMA TRACON (SMA)
Mon 08:17:45 PM 40.5031 -80.3089 91° East 124 143 1,700 -615 Descending FAA TRACON SMA TRACON (SMA)
Mon 08:18:05 PM 40.5028 -80.2953 92° East 121 139 1,600 -600 Descending FAA TRACON SMA TRACON (SMA)
Mon 08:18:25 PM 40.5025 -80.2783 91° East 119 137 1,300 -450 Descending FAA TRACON SMA TRACON (SMA)
Mon 08:18:45 PM 40.5025 -80.2750 90° East 120 138 1,300  Level FAA TRACON SMA TRACON (SMA)

Login

Don't have an account? Register now (free) for customized features, flight alerts, and more!